createdAt,value
2019-04-04T00:00:30.053Z,8.50
2019-04-04T00:02:58.585Z,8.60
2019-04-04T00:05:27.070Z,8.50
2019-04-04T00:07:55.494Z,8.50
2019-04-04T00:10:23.957Z,8.50
2019-04-04T00:12:52.469Z,8.50
2019-04-04T00:15:20.921Z,8.50
2019-04-04T00:17:49.385Z,8.60
2019-04-04T00:20:17.939Z,8.60
2019-04-04T00:22:46.473Z,8.60
2019-04-04T00:25:15.010Z,8.60
2019-04-04T00:27:43.985Z,8.80
2019-04-04T00:30:13.623Z,8.80
2019-04-04T00:32:42.134Z,8.70
2019-04-04T00:35:10.646Z,8.70
2019-04-04T00:37:41.044Z,8.80
2019-04-04T00:40:11.631Z,8.90
2019-04-04T00:42:39.762Z,8.90
2019-04-04T00:45:08.375Z,9.00
2019-04-04T00:47:36.950Z,8.90
2019-04-04T00:50:07.213Z,8.90
2019-04-04T00:52:35.742Z,9.00
2019-04-04T00:55:06.332Z,8.90
2019-04-04T00:57:34.819Z,9.10
2019-04-04T01:00:03.797Z,9.00
2019-04-04T01:02:32.246Z,8.90
2019-04-04T01:05:01.575Z,9.10
2019-04-04T01:07:30.836Z,9.10
2019-04-04T01:09:59.369Z,9.00
2019-04-04T01:12:27.943Z,8.90
2019-04-04T01:14:58.100Z,9.10
2019-04-04T01:17:26.741Z,9.10
2019-04-04T01:19:55.261Z,9.00
2019-04-04T01:22:26.689Z,9.00
2019-04-04T01:24:55.223Z,8.90
2019-04-04T01:27:23.698Z,8.80
2019-04-04T01:29:52.160Z,8.80
2019-04-04T01:32:20.729Z,8.70
2019-04-04T01:34:51.774Z,8.70
2019-04-04T01:37:19.555Z,8.60
2019-04-04T01:39:48.087Z,8.50
2019-04-04T01:42:16.639Z,8.50
2019-04-04T01:44:45.158Z,8.50
2019-04-04T01:47:14.946Z,8.70
2019-04-04T01:49:43.923Z,8.90
2019-04-04T01:52:12.485Z,9.00
2019-04-04T01:54:42.547Z,8.90
2019-04-04T01:57:11.002Z,8.80
2019-04-04T01:59:39.529Z,8.80
2019-04-04T02:02:08.011Z,8.70
2019-04-04T02:04:36.548Z,8.80
2019-04-04T02:07:05.073Z,8.80
2019-04-04T02:09:34.610Z,8.70
2019-04-04T02:12:03.249Z,8.80
2019-04-04T02:14:31.713Z,8.90
2019-04-04T02:17:00.237Z,8.80
2019-04-04T02:19:28.710Z,8.80
2019-04-04T02:21:57.848Z,8.80
2019-04-04T02:24:27.414Z,8.80
2019-04-04T02:26:55.894Z,8.90
2019-04-04T02:29:24.490Z,8.90
2019-04-04T02:31:54.740Z,9.00
2019-04-04T02:34:23.289Z,9.00
2019-04-04T02:36:51.810Z,8.90
2019-04-04T02:39:20.805Z,9.00
2019-04-04T02:41:49.417Z,9.00
2019-04-04T02:44:18.179Z,9.10
2019-04-04T02:46:46.651Z,9.00
2019-04-04T02:49:15.312Z,9.00
2019-04-04T02:51:43.869Z,8.90
2019-04-04T02:54:12.488Z,8.90
2019-04-04T02:56:41.128Z,8.90
2019-04-04T02:59:09.681Z,8.90
2019-04-04T03:01:38.240Z,8.80
2019-04-04T03:04:06.788Z,8.80
2019-04-04T03:06:35.357Z,8.70
2019-04-04T03:09:09.035Z,8.80
2019-04-04T03:11:35.889Z,8.90
2019-04-04T03:14:04.849Z,8.80
2019-04-04T03:16:33.561Z,8.90
2019-04-04T03:19:02.313Z,8.80
2019-04-04T03:21:30.823Z,8.70
2019-04-04T03:23:59.320Z,8.70
2019-04-04T03:26:27.835Z,8.50
2019-04-04T03:28:56.378Z,8.50
2019-04-04T03:31:24.952Z,8.40
2019-04-04T03:33:53.603Z,8.30
2019-04-04T03:36:22.099Z,8.20
2019-04-04T03:38:50.920Z,8.10
2019-04-04T03:41:19.365Z,8.10
2019-04-04T03:43:49.002Z,8.10
2019-04-04T03:46:17.792Z,8.10
2019-04-04T03:48:49.829Z,8.10
2019-04-04T03:51:16.566Z,8.10
2019-04-04T03:53:52.699Z,8.00
2019-04-04T03:56:21.240Z,7.90
2019-04-04T03:58:49.728Z,8.00
2019-04-04T04:01:18.212Z,8.00
2019-04-04T04:03:46.706Z,8.00
2019-04-04T04:06:15.306Z,8.00
2019-04-04T04:08:43.962Z,7.90
2019-04-04T04:11:12.517Z,7.80
2019-04-04T04:13:40.983Z,7.80
2019-04-04T04:16:09.547Z,7.70
2019-04-04T04:18:38.190Z,7.70
2019-04-04T04:21:09.750Z,7.60
2019-04-04T04:23:36.867Z,7.60
2019-04-04T04:26:08.195Z,7.60
2019-04-04T04:28:35.602Z,7.60
2019-04-04T04:31:04.078Z,7.60
2019-04-04T04:33:32.547Z,7.60
2019-04-04T04:36:01.119Z,7.60
2019-04-04T04:38:29.589Z,7.60
2019-04-04T04:40:58.066Z,7.60
2019-04-04T04:43:26.607Z,7.60
2019-04-04T04:45:55.073Z,7.60
2019-04-04T04:48:25.942Z,7.70
2019-04-04T04:50:53.788Z,7.70
2019-04-04T04:53:22.344Z,7.70
2019-04-04T04:55:50.868Z,7.80
2019-04-04T04:58:19.466Z,7.80
2019-04-04T05:00:49.592Z,7.80
2019-04-04T05:03:18.179Z,7.90
2019-04-04T05:05:46.695Z,8.00
2019-04-04T05:08:15.303Z,8.00
2019-04-04T05:10:45.683Z,8.00
2019-04-04T05:13:14.016Z,8.10
2019-04-04T05:15:42.475Z,8.10
2019-04-04T05:18:12.020Z,8.30
2019-04-04T05:20:40.790Z,8.30
2019-04-04T05:23:11.086Z,8.40
2019-04-04T05:25:50.573Z,8.50
2019-04-04T05:28:10.808Z,8.50
2019-04-04T05:30:39.933Z,8.60
2019-04-04T05:33:08.473Z,8.70
2019-04-04T05:35:37.834Z,8.90
2019-04-04T05:38:07.867Z,8.90
2019-04-04T05:40:37.136Z,9.10
2019-04-04T05:43:05.647Z,9.20
2019-04-04T05:45:34.305Z,9.20
2019-04-04T05:48:02.839Z,9.50
2019-04-04T05:50:31.668Z,9.50
2019-04-04T05:53:00.215Z,9.50
2019-04-04T05:55:28.768Z,9.50
2019-04-04T05:57:57.282Z,9.50
2019-04-04T06:00:27.285Z,9.50
2019-04-04T06:02:56.117Z,9.50
2019-04-04T06:05:26.896Z,9.60
2019-04-04T06:07:54.765Z,9.50
2019-04-04T06:10:23.281Z,9.50
2019-04-04T06:12:54.337Z,9.50
2019-04-04T06:15:21.984Z,9.60
2019-04-04T06:17:50.505Z,9.70
2019-04-04T06:20:19.123Z,9.70
2019-04-04T06:22:47.666Z,9.70
2019-04-04T06:25:16.239Z,9.80
2019-04-04T06:27:44.802Z,10.00
2019-04-04T06:30:13.353Z,10.00
2019-04-04T06:32:41.819Z,10.10
2019-04-04T06:35:10.360Z,10.10
2019-04-04T06:37:39.042Z,10.00
2019-04-04T06:40:07.898Z,10.10
2019-04-04T06:42:37.146Z,10.10
2019-04-04T06:45:07.168Z,10.00
2019-04-04T06:47:35.726Z,10.00
2019-04-04T06:50:07.401Z,10.10
2019-04-04T06:52:35.324Z,10.20
2019-04-04T06:55:05.016Z,10.30
2019-04-04T06:57:34.190Z,10.30
2019-04-04T07:00:05.989Z,10.30
2019-04-04T07:02:34.475Z,10.30
2019-04-04T07:05:06.995Z,10.30
2019-04-04T07:07:35.731Z,10.40
2019-04-04T07:10:06.040Z,10.40
2019-04-04T07:12:37.780Z,10.70
2019-04-04T07:15:11.211Z,10.80
2019-04-04T07:17:40.382Z,10.90
2019-04-04T07:20:08.692Z,11.20
2019-04-04T07:22:37.253Z,11.50
2019-04-04T07:25:09.101Z,11.60
2019-04-04T07:27:39.259Z,11.60
2019-04-04T07:30:15.179Z,11.70
2019-04-04T07:32:42.395Z,12.00
2019-04-04T07:35:11.190Z,12.10
2019-04-04T07:37:39.675Z,12.20
2019-04-04T07:40:09.348Z,12.30
2019-04-04T07:42:40.181Z,12.20
2019-04-04T07:45:08.607Z,12.10
2019-04-04T07:47:37.118Z,11.90
2019-04-04T07:50:06.636Z,11.80
2019-04-04T07:52:35.191Z,11.60
2019-04-04T07:55:04.056Z,11.50
2019-04-04T07:57:32.570Z,11.40
2019-04-04T08:00:01.050Z,11.40
2019-04-04T08:02:29.796Z,11.50
2019-04-04T08:05:00.117Z,11.50
2019-04-04T08:07:28.580Z,11.50
2019-04-04T08:09:57.597Z,11.70
2019-04-04T08:12:26.132Z,11.80
2019-04-04T08:14:54.883Z,11.90
2019-04-04T08:17:23.365Z,12.00
2019-04-04T08:19:59.472Z,12.00
2019-04-04T08:22:22.185Z,12.20
2019-04-04T08:24:50.796Z,12.10
2019-04-04T08:27:19.298Z,12.00
2019-04-04T08:29:47.767Z,11.80
2019-04-04T08:32:16.246Z,11.70
2019-04-04T08:34:44.765Z,11.60
2019-04-04T08:37:13.296Z,11.50
2019-04-04T08:39:41.734Z,11.40
2019-04-04T08:42:10.313Z,11.40
2019-04-04T08:44:38.855Z,11.40
2019-04-04T08:47:07.442Z,11.30
2019-04-04T08:49:35.901Z,11.20
2019-04-04T08:52:16.030Z,11.20
2019-04-04T08:54:34.642Z,11.10
2019-04-04T08:57:03.196Z,11.20
2019-04-04T08:59:31.670Z,11.10
2019-04-04T09:02:00.166Z,11.10
2019-04-04T09:04:28.689Z,11.20
2019-04-04T09:06:57.298Z,11.20
2019-04-04T09:09:25.842Z,11.20
2019-04-04T09:11:54.421Z,11.10
2019-04-04T09:14:22.932Z,11.00
2019-04-04T09:16:51.674Z,11.00
2019-04-04T09:19:20.278Z,11.00
2019-04-04T09:21:48.756Z,11.00
2019-04-04T09:24:17.232Z,10.90
2019-04-04T09:26:45.678Z,10.70
2019-04-04T09:29:14.169Z,10.70
2019-04-04T09:31:42.701Z,10.80
2019-04-04T09:34:11.284Z,11.10
2019-04-04T09:36:39.861Z,11.30
2019-04-04T09:39:08.332Z,11.50
2019-04-04T09:41:36.915Z,11.40
2019-04-04T09:44:06.197Z,11.50
2019-04-04T09:46:35.011Z,11.50
2019-04-04T09:49:03.722Z,11.60
2019-04-04T09:51:32.324Z,11.70
2019-04-04T09:54:00.862Z,11.90
2019-04-04T09:56:29.428Z,12.20
2019-04-04T09:58:58.014Z,12.30
2019-04-04T10:01:28.101Z,12.60
2019-04-04T10:03:56.613Z,12.60
2019-04-04T10:06:26.108Z,12.70
2019-04-04T10:08:54.691Z,12.90
2019-04-04T10:11:23.203Z,13.20
2019-04-04T10:13:51.790Z,13.00
2019-04-04T10:16:20.459Z,13.10
2019-04-04T10:18:49.000Z,13.20
2019-04-04T10:21:17.524Z,13.00
2019-04-04T10:23:46.092Z,13.00
2019-04-04T10:26:14.691Z,13.20
2019-04-04T10:28:43.251Z,13.40
2019-04-04T10:31:12.099Z,13.30
2019-04-04T10:33:46.969Z,13.30
2019-04-04T10:36:15.631Z,13.40
2019-04-04T10:38:44.093Z,13.40
2019-04-04T10:41:12.721Z,13.50
2019-04-04T10:43:41.231Z,13.60
2019-04-04T10:46:09.768Z,13.50
2019-04-04T10:48:38.366Z,13.20
2019-04-04T10:51:06.846Z,12.90
2019-04-04T10:53:35.339Z,12.70
2019-04-04T10:56:03.874Z,12.70
2019-04-04T10:58:32.346Z,12.60
2019-04-04T11:01:01.079Z,12.60
2019-04-04T11:03:31.650Z,12.80
2019-04-04T11:06:00.283Z,12.90
2019-04-04T11:08:28.902Z,13.20
2019-04-04T11:10:58.961Z,13.50
2019-04-04T11:13:33.302Z,14.00
2019-04-04T11:15:57.825Z,13.60
2019-04-04T11:18:26.402Z,13.90
2019-04-04T11:20:54.962Z,14.00
2019-04-04T11:23:23.442Z,13.90
2019-04-04T11:25:51.904Z,14.10
2019-04-04T11:28:20.366Z,14.50
2019-04-04T11:30:48.984Z,15.10
2019-04-04T11:33:19.111Z,15.20
2019-04-04T11:35:47.718Z,15.60
2019-04-04T11:38:16.407Z,15.70
2019-04-04T11:40:44.862Z,16.50
2019-04-04T11:43:13.322Z,16.90
2019-04-04T11:45:41.827Z,17.50
2019-04-04T11:48:10.362Z,17.80
2019-04-04T11:50:39.934Z,18.30
2019-04-04T11:53:08.602Z,18.40
2019-04-04T11:55:37.075Z,18.30
2019-04-04T11:58:05.574Z,18.20
2019-04-04T12:00:35.706Z,18.00
2019-04-04T12:03:04.328Z,18.30
2019-04-04T12:05:32.963Z,18.30
2019-04-04T12:08:01.423Z,17.80
2019-04-04T12:10:29.883Z,17.50
2019-04-04T12:12:58.781Z,17.10
2019-04-04T12:15:27.341Z,17.10
2019-04-04T12:17:55.827Z,17.50
2019-04-04T12:20:24.381Z,17.40
2019-04-04T12:22:52.870Z,17.20
2019-04-04T12:25:21.318Z,16.80
2019-04-04T12:27:49.778Z,16.20
2019-04-04T12:30:20.574Z,16.00
2019-04-04T12:32:48.414Z,15.70
2019-04-04T12:35:16.889Z,15.70
2019-04-04T12:37:45.328Z,15.40
2019-04-04T12:40:20.474Z,15.20
2019-04-04T12:42:44.290Z,15.50
2019-04-04T12:45:12.962Z,15.90
2019-04-04T12:47:41.418Z,16.20
2019-04-04T12:50:10.343Z,16.50
2019-04-04T12:52:38.821Z,16.80
2019-04-04T12:55:07.735Z,16.70
2019-04-04T12:57:42.624Z,16.80
2019-04-04T13:00:11.617Z,16.60
2019-04-04T13:02:40.171Z,16.60
2019-04-04T13:05:28.017Z,16.40
2019-04-04T13:07:56.465Z,16.50
2019-04-04T13:10:32.934Z,16.40
2019-04-04T13:12:55.113Z,16.60
2019-04-04T13:15:23.769Z,16.60
2019-04-04T13:17:52.255Z,16.80
2019-04-04T13:20:21.084Z,16.70
2019-04-04T13:22:49.603Z,16.80
2019-04-04T13:25:18.147Z,16.80
2019-04-04T13:27:46.678Z,16.90
2019-04-04T13:30:15.588Z,16.90
2019-04-04T13:32:44.050Z,16.50
2019-04-04T13:35:12.908Z,16.20
2019-04-04T13:37:41.362Z,16.40
2019-04-04T13:40:10.075Z,16.50
2019-04-04T13:42:38.555Z,16.50
2019-04-04T13:45:07.679Z,16.60
2019-04-04T13:47:38.221Z,16.70
2019-04-04T13:50:08.152Z,16.80
2019-04-04T13:52:36.683Z,16.70
2019-04-04T13:55:06.275Z,16.80
2019-04-04T13:57:39.294Z,16.70
2019-04-04T14:00:09.380Z,16.70
2019-04-04T14:02:37.982Z,16.60
2019-04-04T14:05:10.803Z,16.40
2019-04-04T14:07:39.372Z,16.40
2019-04-04T14:10:08.082Z,16.30
2019-04-04T14:12:36.556Z,16.40
2019-04-04T14:15:09.673Z,16.50
2019-04-04T14:17:38.152Z,16.60
2019-04-04T14:20:09.153Z,16.40
2019-04-04T14:22:37.713Z,16.40
2019-04-04T14:25:07.173Z,16.40
2019-04-04T14:27:35.690Z,16.50
2019-04-04T14:30:06.869Z,16.50
2019-04-04T14:32:35.398Z,16.60
2019-04-04T14:35:05.697Z,16.80
2019-04-04T14:37:34.217Z,16.90
2019-04-04T14:40:03.115Z,16.70
2019-04-04T14:42:31.590Z,16.70
2019-04-04T14:45:02.251Z,16.60
2019-04-04T14:47:32.978Z,16.40
2019-04-04T14:50:00.686Z,16.30
2019-04-04T14:52:29.205Z,16.30
2019-04-04T14:54:57.725Z,16.30
2019-04-04T14:57:26.307Z,16.40
2019-04-04T14:59:54.810Z,16.50
2019-04-04T15:02:23.346Z,16.50
2019-04-04T15:04:51.903Z,16.70
2019-04-04T15:07:20.350Z,16.60
2019-04-04T15:09:54.930Z,16.50
2019-04-04T15:12:25.067Z,16.30
2019-04-04T15:17:29.954Z,16.10
2019-04-04T15:19:58.416Z,16.10
2019-04-04T15:22:27.241Z,16.10
2019-04-04T15:24:55.710Z,15.90
2019-04-04T15:27:24.178Z,16.00
2019-04-04T15:29:52.786Z,16.00
2019-04-04T15:32:21.339Z,15.90
2019-04-04T15:34:49.946Z,15.80
2019-04-04T15:37:18.409Z,15.80
2019-04-04T15:39:46.952Z,15.80
2019-04-04T15:42:15.470Z,15.70
2019-04-04T15:44:43.930Z,15.60
2019-04-04T15:47:12.454Z,15.60
2019-04-04T15:49:40.950Z,15.60
2019-04-04T15:52:09.418Z,15.60
2019-04-04T15:54:37.887Z,15.60
2019-04-04T15:57:06.347Z,15.50
2019-04-04T15:59:34.880Z,15.40
2019-04-04T16:02:03.333Z,15.30
2019-04-04T16:04:31.900Z,15.20
2019-04-04T16:07:00.353Z,15.20
2019-04-04T16:09:28.914Z,15.20
2019-04-04T16:11:57.506Z,15.20
2019-04-04T16:14:25.969Z,15.20
2019-04-04T16:16:54.433Z,15.20
2019-04-04T16:19:23.260Z,15.20
2019-04-04T16:21:51.722Z,15.20
2019-04-04T16:26:49.039Z,15.10
2019-04-04T16:29:17.489Z,15.20
2019-04-04T16:31:45.996Z,15.10
2019-04-04T16:34:14.510Z,15.10
2019-04-04T16:36:43.048Z,15.10
2019-04-04T16:39:11.541Z,14.90
2019-04-04T16:41:40.106Z,14.80
2019-04-04T16:44:08.614Z,14.60
2019-04-04T16:46:37.081Z,14.60
2019-04-04T16:49:05.550Z,14.50
2019-04-04T16:51:34.035Z,14.40
2019-04-04T16:54:02.613Z,14.20
2019-04-04T16:56:31.115Z,14.00
2019-04-04T16:58:59.649Z,14.00
2019-04-04T17:01:28.277Z,13.90
2019-04-04T17:04:01.786Z,13.80
2019-04-04T17:06:29.285Z,13.70
2019-04-04T17:12:14.828Z,13.70
2019-04-04T17:14:39.013Z,13.70
2019-04-04T17:17:07.685Z,13.80
2019-04-04T17:19:36.163Z,13.70
2019-04-04T17:22:04.730Z,13.50
2019-04-04T17:24:33.266Z,13.30
2019-04-04T17:27:01.835Z,13.20
2019-04-04T17:29:30.411Z,13.10
2019-04-04T17:31:59.435Z,13.00
2019-04-04T17:34:29.787Z,13.20
2019-04-04T17:36:58.829Z,13.30
2019-04-04T17:39:28.200Z,13.30
2019-04-04T17:41:56.934Z,13.20
2019-04-04T17:44:25.449Z,13.10
2019-04-04T17:46:54.069Z,12.90
2019-04-04T17:49:22.754Z,12.70
2019-04-04T17:51:51.408Z,12.50
2019-04-04T17:54:20.058Z,12.20
2019-04-04T17:56:49.073Z,12.10
2019-04-04T17:59:17.931Z,11.90
2019-04-04T18:01:46.514Z,11.80
2019-04-04T18:04:15.119Z,11.80
2019-04-04T18:06:43.590Z,11.80
2019-04-04T18:09:12.043Z,11.80
2019-04-04T18:11:40.531Z,12.20
2019-04-04T18:14:09.022Z,12.20
2019-04-04T18:16:37.567Z,12.00
2019-04-04T18:19:06.141Z,12.00
2019-04-04T18:21:34.668Z,11.80
2019-04-04T18:24:03.122Z,11.60
2019-04-04T18:26:31.631Z,11.40
2019-04-04T18:29:00.095Z,11.30
2019-04-04T18:31:28.598Z,11.20
2019-04-04T18:33:57.489Z,11.10
2019-04-04T18:36:26.458Z,11.00
2019-04-04T18:38:55.121Z,10.90
2019-04-04T18:41:23.668Z,10.90
2019-04-04T18:43:52.127Z,10.80
2019-04-04T18:46:20.613Z,10.80
2019-04-04T18:48:51.717Z,10.70
2019-04-04T18:51:20.254Z,10.70
2019-04-04T18:53:55.000Z,10.70
2019-04-04T18:56:18.999Z,10.80
2019-04-04T18:58:50.554Z,10.80
2019-04-04T19:01:19.102Z,10.70
2019-04-04T19:03:47.661Z,10.70
2019-04-04T19:06:16.142Z,10.70
2019-04-04T19:08:44.691Z,10.70
2019-04-04T19:11:21.711Z,10.70
2019-04-04T19:13:50.292Z,10.60
2019-04-04T19:16:18.822Z,10.50
2019-04-04T19:18:47.509Z,10.40
2019-04-04T19:21:16.579Z,10.30
2019-04-04T19:23:49.350Z,10.30
2019-04-04T19:26:15.400Z,10.30
2019-04-04T19:28:43.881Z,10.30
2019-04-04T19:31:12.653Z,10.20
2019-04-04T19:33:41.142Z,10.20
2019-04-04T19:36:09.623Z,10.20
2019-04-04T19:38:38.101Z,10.20
2019-04-04T19:41:07.100Z,10.20
2019-04-04T19:43:35.592Z,10.20
2019-04-04T19:46:04.327Z,10.30
2019-04-04T19:48:32.815Z,10.30
2019-04-04T19:51:01.807Z,10.20
2019-04-04T19:53:30.998Z,10.10
2019-04-04T19:56:02.684Z,10.10
2019-04-04T19:58:31.305Z,10.10
2019-04-04T20:01:00.258Z,10.10
2019-04-04T20:03:29.086Z,10.00
2019-04-04T20:05:57.882Z,10.10
2019-04-04T20:08:26.521Z,10.10
2019-04-04T20:10:55.022Z,10.10
2019-04-04T20:13:30.911Z,10.00
2019-04-04T20:18:27.423Z,9.80
2019-04-04T20:20:56.072Z,9.80
2019-04-04T20:23:24.737Z,9.70
2019-04-04T20:25:54.137Z,9.80
2019-04-04T20:28:23.116Z,9.90
2019-04-04T20:30:52.048Z,9.90
2019-04-04T20:33:21.322Z,9.90
2019-04-04T20:35:50.430Z,9.80
2019-04-04T20:38:19.026Z,9.70
2019-04-04T20:40:47.930Z,9.60
2019-04-04T20:43:18.100Z,9.50
2019-04-04T20:45:46.662Z,9.40
2019-04-04T20:48:15.146Z,9.40
2019-04-04T20:50:44.238Z,9.30
2019-04-04T20:53:12.765Z,9.20
2019-04-04T20:55:42.555Z,9.20
2019-04-04T20:58:11.114Z,9.20
2019-04-04T21:00:39.739Z,9.10
2019-04-04T21:03:08.266Z,9.20
2019-04-04T21:05:36.834Z,9.20
2019-04-04T21:08:06.569Z,9.30
2019-04-04T21:10:35.053Z,9.20
2019-04-04T21:13:03.595Z,9.20
2019-04-04T21:15:33.032Z,9.10
2019-04-04T21:18:01.611Z,9.00
2019-04-04T21:20:30.352Z,9.10
2019-04-04T21:22:58.850Z,9.30
2019-04-04T21:25:30.073Z,9.30
2019-04-04T21:27:58.799Z,9.30
2019-04-04T21:30:30.385Z,9.40
2019-04-04T21:32:58.898Z,9.30
2019-04-04T21:35:30.460Z,9.20
2019-04-04T21:37:59.097Z,9.10
2019-04-04T21:40:28.184Z,8.90
2019-04-04T21:42:58.390Z,8.80
2019-04-04T21:45:26.920Z,8.70
2019-04-04T21:47:56.313Z,8.70
2019-04-04T21:50:27.587Z,8.70
2019-04-04T21:52:57.325Z,8.70
2019-04-04T21:55:25.838Z,8.60
2019-04-04T21:57:54.316Z,8.70
2019-04-04T22:00:23.578Z,8.70
2019-04-04T22:02:52.183Z,8.60
2019-04-04T22:05:20.702Z,8.70
2019-04-04T22:07:49.230Z,8.80
2019-04-04T22:10:17.693Z,9.00
2019-04-04T22:12:46.226Z,9.00
2019-04-04T22:15:14.838Z,9.00
2019-04-04T22:17:43.454Z,9.00
2019-04-04T22:20:13.514Z,8.90
2019-04-04T22:22:41.996Z,8.90
2019-04-04T22:25:10.593Z,8.80
2019-04-04T22:27:39.034Z,8.80
2019-04-04T22:30:08.128Z,8.80
2019-04-04T22:32:38.679Z,8.80
2019-04-04T22:35:08.043Z,8.70
2019-04-04T22:37:36.600Z,8.70
2019-04-04T22:40:08.085Z,8.70
2019-04-04T22:42:37.009Z,8.60
2019-04-04T22:45:07.580Z,8.60
2019-04-04T22:47:36.115Z,8.60
2019-04-04T22:50:06.169Z,8.50
2019-04-04T22:52:34.630Z,8.50
2019-04-04T22:55:03.109Z,8.40
2019-04-04T22:57:31.613Z,8.40
2019-04-04T23:00:01.655Z,8.40
2019-04-04T23:02:31.650Z,8.30
2019-04-04T23:05:01.695Z,8.30
2019-04-04T23:07:33.264Z,8.30
2019-04-04T23:10:01.786Z,8.20
2019-04-04T23:12:30.388Z,8.20
2019-04-04T23:15:00.618Z,8.20
2019-04-04T23:17:30.707Z,8.20
2019-04-04T23:20:00.811Z,8.10
2019-04-04T23:22:30.980Z,8.10
2019-04-04T23:25:01.191Z,8.10
2019-04-04T23:27:32.419Z,8.10
2019-04-04T23:30:02.423Z,8.10
2019-04-04T23:32:32.425Z,8.10
2019-04-04T23:35:04.470Z,7.90
2019-04-04T23:37:32.931Z,7.80
2019-04-04T23:40:01.381Z,7.90
2019-04-04T23:42:32.571Z,7.80
2019-04-04T23:45:06.251Z,7.60
2019-04-04T23:47:42.722Z,7.50
2019-04-04T23:50:06.535Z,7.40
2019-04-04T23:52:35.600Z,7.20
2019-04-04T23:55:05.958Z,7.20
2019-04-04T23:57:34.412Z,7.20
